sensor_id;sensor_type;location;lat;lon;timestamp;pressure;altitude;pressure_sealevel;temperature
67509;BMP280;54354;44.724;11.284;2023-11-19T00:00:20;102181.09;;;14.13
67509;BMP280;54354;44.724;11.284;2023-11-19T00:02:45;102168.56;;;14.10
67509;BMP280;54354;44.724;11.284;2023-11-19T00:05:13;102160.56;;;14.06
67509;BMP280;54354;44.724;11.284;2023-11-19T00:07:39;102158.69;;;14.03
67509;BMP280;54354;44.724;11.284;2023-11-19T00:10:09;102149.19;;;14.05
67509;BMP280;54354;44.724;11.284;2023-11-19T00:12:37;102148.44;;;14.01
67509;BMP280;54354;44.724;11.284;2023-11-19T00:15:03;102174.69;;;14.03
67509;BMP280;54354;44.724;11.284;2023-11-19T00:17:28;102178.50;;;14.02
67509;BMP280;54354;44.724;11.284;2023-11-19T00:19:54;102180.75;;;14.03
67509;BMP280;54354;44.724;11.284;2023-11-19T00:22:19;102180.00;;;14.03
67509;BMP280;54354;44.724;11.284;2023-11-19T00:24:46;102178.50;;;14.02
67509;BMP280;54354;44.724;11.284;2023-11-19T00:27:12;102183.06;;;14.05
67509;BMP280;54354;44.724;11.284;2023-11-19T00:29:37;102170.84;;;14.08
67509;BMP280;54354;44.724;11.284;2023-11-19T00:32:03;102167.78;;;14.09
67509;BMP280;54354;44.724;11.284;2023-11-19T00:34:30;102180.31;;;14.12
67509;BMP280;54354;44.724;11.284;2023-11-19T00:36:56;102178.06;;;14.11
67509;BMP280;54354;44.724;11.284;2023-11-19T00:39:21;102176.91;;;14.12
67509;BMP280;54354;44.724;11.284;2023-11-19T00:41:48;102146.88;;;14.08
67509;BMP280;54354;44.724;11.284;2023-11-19T00:44:13;102148.00;;;14.10
67509;BMP280;54354;44.724;11.284;2023-11-19T00:46:39;102152.19;;;14.11
67509;BMP280;54354;44.724;11.284;2023-11-19T00:49:05;102173.50;;;14.08
67509;BMP280;54354;44.724;11.284;2023-11-19T00:51:31;102181.88;;;14.06
67509;BMP280;54354;44.724;11.284;2023-11-19T00:53:57;102173.94;;;14.02
67509;BMP280;54354;44.724;11.284;2023-11-19T00:56:23;102182.31;;;14.01
67509;BMP280;54354;44.724;11.284;2023-11-19T00:58:49;102195.28;;;13.99
67509;BMP280;54354;44.724;11.284;2023-11-19T01:01:15;102199.41;;;14.00
67509;BMP280;54354;44.724;11.284;2023-11-19T01:03:40;102209.34;;;13.99
67509;BMP280;54354;44.724;11.284;2023-11-19T01:06:06;102189.53;;;14.00
67509;BMP280;54354;44.724;11.284;2023-11-19T01:08:31;102192.97;;;13.97
67509;BMP280;54354;44.724;11.284;2023-11-19T01:10:57;102183.13;;;13.98
67509;BMP280;54354;44.724;11.284;2023-11-19T01:13:22;102186.53;;;13.95
67509;BMP280;54354;44.724;11.284;2023-11-19T01:15:48;102175.53;;;13.93
67509;BMP280;54354;44.724;11.284;2023-11-19T01:18:14;102177.06;;;13.90
67509;BMP280;54354;44.724;11.284;2023-11-19T01:20:40;102172.50;;;13.91
67509;BMP280;54354;44.724;11.284;2023-11-19T01:23:06;102167.91;;;13.91
67509;BMP280;54354;44.724;11.284;2023-11-19T01:25:32;102161.09;;;13.90
67509;BMP280;54354;44.724;11.284;2023-11-19T01:27:57;102169.47;;;13.92
67509;BMP280;54354;44.724;11.284;2023-11-19T01:30:24;102158.41;;;13.90
67509;BMP280;54354;44.724;11.284;2023-11-19T01:32:50;102163.69;;;13.94
67509;BMP280;54354;44.724;11.284;2023-11-19T01:35:15;102167.13;;;13.98
67509;BMP280;54354;44.724;11.284;2023-11-19T01:37:41;102147.69;;;14.01
67509;BMP280;54354;44.724;11.284;2023-11-19T01:40:07;102149.19;;;14.02
67509;BMP280;54354;44.724;11.284;2023-11-19T01:42:37;102140.00;;;14.06
67509;BMP280;54354;44.724;11.284;2023-11-19T01:45:04;102139.63;;;14.12
67509;BMP280;54354;44.724;11.284;2023-11-19T01:47:33;102136.88;;;14.19
67509;BMP280;54354;44.724;11.284;2023-11-19T01:49:59;102135.41;;;14.14
67509;BMP280;54354;44.724;11.284;2023-11-19T01:52:25;102135.81;;;14.09
67509;BMP280;54354;44.724;11.284;2023-11-19T01:54:52;102132.81;;;14.03
67509;BMP280;54354;44.724;11.284;2023-11-19T01:57:19;102135.88;;;14.02
67509;BMP280;54354;44.724;11.284;2023-11-19T01:59:46;102127.19;;;13.98
67509;BMP280;54354;44.724;11.284;2023-11-19T02:02:12;102129.84;;;13.94
67509;BMP280;54354;44.724;11.284;2023-11-19T02:04:38;102124.19;;;13.92
67509;BMP280;54354;44.724;11.284;2023-11-19T02:07:04;102112.75;;;13.88
67509;BMP280;54354;44.724;11.284;2023-11-19T02:09:30;102123.09;;;13.86
67509;BMP280;54354;44.724;11.284;2023-11-19T02:11:55;102131.44;;;13.85
67509;BMP280;54354;44.724;11.284;2023-11-19T02:14:25;102119.72;;;13.78
67509;BMP280;54354;44.724;11.284;2023-11-19T02:16:52;102120.47;;;13.79
67509;BMP280;54354;44.724;11.284;2023-11-19T02:19:20;102117.84;;;13.72
67509;BMP280;54354;44.724;11.284;2023-11-19T02:21:46;102126.94;;;13.74
67509;BMP280;54354;44.724;11.284;2023-11-19T02:24:14;102113.69;;;13.67
67509;BMP280;54354;44.724;11.284;2023-11-19T02:26:47;102106.13;;;13.62
67509;BMP280;54354;44.724;11.284;2023-11-19T02:29:15;102098.50;;;13.64
67509;BMP280;54354;44.724;11.284;2023-11-19T02:31:41;102087.50;;;13.59
67509;BMP280;54354;44.724;11.284;2023-11-19T02:34:06;102098.91;;;13.56
67509;BMP280;54354;44.724;11.284;2023-11-19T02:36:32;102097.44;;;13.51
67509;BMP280;54354;44.724;11.284;2023-11-19T02:38:58;102094.81;;;13.44
67509;BMP280;54354;44.724;11.284;2023-11-19T02:41:24;102096.72;;;13.43
67509;BMP280;54354;44.724;11.284;2023-11-19T02:43:49;102083.84;;;13.42
67509;BMP280;54354;44.724;11.284;2023-11-19T02:46:15;102077.00;;;13.41
67509;BMP280;54354;44.724;11.284;2023-11-19T02:48:42;102078.53;;;13.38
67509;BMP280;54354;44.724;11.284;2023-11-19T02:51:09;102080.03;;;13.39
67509;BMP280;54354;44.724;11.284;2023-11-19T02:53:36;102067.13;;;13.41
67509;BMP280;54354;44.724;11.284;2023-11-19T02:56:03;102066.34;;;13.41
67509;BMP280;54354;44.724;11.284;2023-11-19T02:58:43;102059.53;;;13.36
67509;BMP280;54354;44.724;11.284;2023-11-19T03:01:10;102063.66;;;13.44
67509;BMP280;54354;44.724;11.284;2023-11-19T03:03:44;102058.78;;;13.36
67509;BMP280;54354;44.724;11.284;2023-11-19T03:06:14;102048.88;;;13.36
67509;BMP280;54354;44.724;11.284;2023-11-19T03:08:40;102040.94;;;13.33
67509;BMP280;54354;44.724;11.284;2023-11-19T03:11:05;102049.28;;;13.31
67509;BMP280;54354;44.724;11.284;2023-11-19T03:13:31;102039.81;;;13.30
67509;BMP280;54354;44.724;11.284;2023-11-19T03:15:56;102048.94;;;13.29
67509;BMP280;54354;44.724;11.284;2023-11-19T03:18:22;102043.63;;;13.29
67509;BMP280;54354;44.724;11.284;2023-11-19T03:20:47;102038.31;;;13.25
67509;BMP280;54354;44.724;11.284;2023-11-19T03:23:13;102025.78;;;13.22
67509;BMP280;54354;44.724;11.284;2023-11-19T03:25:39;102029.97;;;13.20
67509;BMP280;54354;44.724;11.284;2023-11-19T03:28:04;102036.06;;;13.17
67509;BMP280;54354;44.724;11.284;2023-11-19T03:30:30;102028.53;;;13.12
67509;BMP280;54354;44.724;11.284;2023-11-19T03:32:57;102022.47;;;13.08
67509;BMP280;54354;44.724;11.284;2023-11-19T03:35:23;102031.19;;;13.05
67509;BMP280;54354;44.724;11.284;2023-11-19T03:37:49;102022.88;;;13.03
67509;BMP280;54354;44.724;11.284;2023-11-19T03:40:16;102024.78;;;13.02
67509;BMP280;54354;44.724;11.284;2023-11-19T03:42:41;102023.66;;;12.99
67509;BMP280;54354;44.724;11.284;2023-11-19T03:45:07;102028.22;;;12.95
67509;BMP280;54354;44.724;11.284;2023-11-19T03:47:36;102027.09;;;12.93
67509;BMP280;54354;44.724;11.284;2023-11-19T03:50:02;102024.88;;;12.88
67509;BMP280;54354;44.724;11.284;2023-11-19T03:52:28;102016.88;;;12.88
67509;BMP280;54354;44.724;11.284;2023-11-19T03:54:55;102024.09;;;12.84
67509;BMP280;54354;44.724;11.284;2023-11-19T03:57:21;102022.97;;;12.81
67509;BMP280;54354;44.724;11.284;2023-11-19T03:59:47;102019.94;;;12.79
67509;BMP280;54354;44.724;11.284;2023-11-19T04:02:13;102032.06;;;12.84
67509;BMP280;54354;44.724;11.284;2023-11-19T04:04:38;102031.72;;;12.82
67509;BMP280;54354;44.724;11.284;2023-11-19T04:07:04;102042.69;;;12.84
67509;BMP280;54354;44.724;11.284;2023-11-19T04:09:30;102050.31;;;12.85
67509;BMP280;54354;44.724;11.284;2023-11-19T04:11:56;102033.19;;;12.86
67509;BMP280;54354;44.724;11.284;2023-11-19T04:14:22;102048.75;;;12.91
67509;BMP280;54354;44.724;11.284;2023-11-19T04:16:47;102052.16;;;12.95
67509;BMP280;54354;44.724;11.284;2023-11-19T04:19:13;102049.84;;;13.01
67509;BMP280;54354;44.724;11.284;2023-11-19T04:21:42;102028.59;;;12.97
67509;BMP280;54354;44.724;11.284;2023-11-19T04:24:08;102024.78;;;13.02
67509;BMP280;54354;44.724;11.284;2023-11-19T04:26:34;102029.28;;;13.05
67509;BMP280;54354;44.724;11.284;2023-11-19T04:28:59;102028.56;;;13.08
67509;BMP280;54354;44.724;11.284;2023-11-19T04:31:29;102014.88;;;13.03
67509;BMP280;54354;44.724;11.284;2023-11-19T04:33:56;102023.56;;;13.10
67509;BMP280;54354;44.724;11.284;2023-11-19T04:36:22;102028.13;;;13.10
67509;BMP280;54354;44.724;11.284;2023-11-19T04:38:50;102022.06;;;13.09
67509;BMP280;54354;44.724;11.284;2023-11-19T04:41:15;102015.56;;;13.14
67509;BMP280;54354;44.724;11.284;2023-11-19T04:43:41;102021.63;;;13.18
67509;BMP280;54354;44.724;11.284;2023-11-19T04:46:06;102012.13;;;13.17
67509;BMP280;54354;44.724;11.284;2023-11-19T04:48:32;102004.19;;;13.13
67509;BMP280;54354;44.724;11.284;2023-11-19T04:50:57;102008.38;;;13.11
67509;BMP280;54354;44.724;11.284;2023-11-19T04:53:23;101995.88;;;13.08
67509;BMP280;54354;44.724;11.284;2023-11-19T04:55:48;102006.91;;;13.06
67509;BMP280;54354;44.724;11.284;2023-11-19T04:58:14;102000.44;;;13.07
67509;BMP280;54354;44.724;11.284;2023-11-19T05:00:39;101995.13;;;13.04
67509;BMP280;54354;44.724;11.284;2023-11-19T05:03:05;101992.84;;;13.06
67509;BMP280;54354;44.724;11.284;2023-11-19T05:05:31;102003.84;;;13.04
67509;BMP280;54354;44.724;11.284;2023-11-19T05:07:57;101993.97;;;13.05
67509;BMP280;54354;44.724;11.284;2023-11-19T05:10:23;101991.31;;;13.05
67509;BMP280;54354;44.724;11.284;2023-11-19T05:12:49;101984.88;;;12.98
67509;BMP280;54354;44.724;11.284;2023-11-19T05:15:15;101987.94;;;12.97
67509;BMP280;54354;44.724;11.284;2023-11-19T05:17:40;101983.03;;;12.95
67509;BMP280;54354;44.724;11.284;2023-11-19T05:20:06;101980.00;;;12.93
67509;BMP280;54354;44.724;11.284;2023-11-19T05:22:42;101969.78;;;12.85
67509;BMP280;54354;44.724;11.284;2023-11-19T05:25:08;101972.44;;;12.88
67509;BMP280;54354;44.724;11.284;2023-11-19T05:27:35;101966.41;;;12.77
67509;BMP280;54354;44.724;11.284;2023-11-19T05:30:02;101964.94;;;12.72
67509;BMP280;54354;44.724;11.284;2023-11-19T05:32:27;101973.25;;;12.75
67509;BMP280;54354;44.724;11.284;2023-11-19T05:34:53;101972.13;;;12.72
67509;BMP280;54354;44.724;11.284;2023-11-19T05:37:18;101969.84;;;12.70
67509;BMP280;54354;44.724;11.284;2023-11-19T05:39:45;101960.38;;;12.66
67509;BMP280;54354;44.724;11.284;2023-11-19T05:42:10;101955.47;;;12.64
67509;BMP280;54354;44.724;11.284;2023-11-19T05:44:36;101956.94;;;12.69
67509;BMP280;54354;44.724;11.284;2023-11-19T05:47:03;101954.31;;;12.65
67509;BMP280;54354;44.724;11.284;2023-11-19T05:49:29;101960.78;;;12.64
67509;BMP280;54354;44.724;11.284;2023-11-19T05:51:55;101951.66;;;12.65
67509;BMP280;54354;44.724;11.284;2023-11-19T05:54:21;101955.06;;;12.66
67509;BMP280;54354;44.724;11.284;2023-11-19T05:56:48;101947.84;;;12.66
67509;BMP280;54354;44.724;11.284;2023-11-19T05:59:14;101950.91;;;12.68
67509;BMP280;54354;44.724;11.284;2023-11-19T06:01:43;101943.31;;;12.67
67509;BMP280;54354;44.724;11.284;2023-11-19T06:04:09;101960.38;;;12.69
67509;BMP280;54354;44.724;11.284;2023-11-19T06:06:36;101956.22;;;12.68
67509;BMP280;54354;44.724;11.284;2023-11-19T06:09:02;101951.25;;;12.70
67509;BMP280;54354;44.724;11.284;2023-11-19T06:11:28;101956.94;;;12.69
67509;BMP280;54354;44.724;11.284;2023-11-19T06:13:54;101958.47;;;12.70
67509;BMP280;54354;44.724;11.284;2023-11-19T06:16:20;101951.28;;;12.67
67509;BMP280;54354;44.724;11.284;2023-11-19T06:18:46;101952.41;;;12.66
67509;BMP280;54354;44.724;11.284;2023-11-19T06:21:12;101943.69;;;12.62
67509;BMP280;54354;44.724;11.284;2023-11-19T06:23:38;101952.41;;;12.62
67509;BMP280;54354;44.724;11.284;2023-11-19T06:26:04;101950.50;;;12.63
67509;BMP280;54354;44.724;11.284;2023-11-19T06:28:31;101949.75;;;12.62
67509;BMP280;54354;44.724;11.284;2023-11-19T06:30:56;101963.44;;;12.64
67509;BMP280;54354;44.724;11.284;2023-11-19T06:33:24;101960.81;;;12.61
67509;BMP280;54354;44.724;11.284;2023-11-19T06:35:49;101955.47;;;12.64
67509;BMP280;54354;44.724;11.284;2023-11-19T06:38:15;101964.56;;;12.67
67509;BMP280;54354;44.724;11.284;2023-11-19T06:40:40;101953.16;;;12.70
67509;BMP280;54354;44.724;11.284;2023-11-19T06:43:06;101961.47;;;12.76
67509;BMP280;54354;44.724;11.284;2023-11-19T06:45:33;101956.91;;;12.76
67509;BMP280;54354;44.724;11.284;2023-11-19T06:48:03;101948.94;;;12.76
67509;BMP280;54354;44.724;11.284;2023-11-19T06:50:30;101945.88;;;12.81
67509;BMP280;54354;44.724;11.284;2023-11-19T06:52:56;101951.19;;;12.85
67509;BMP280;54354;44.724;11.284;2023-11-19T06:55:21;101946.22;;;12.87
67509;BMP280;54354;44.724;11.284;2023-11-19T06:57:47;101960.66;;;12.86
67509;BMP280;54354;44.724;11.284;2023-11-19T07:00:13;101968.63;;;12.86
67509;BMP280;54354;44.724;11.284;2023-11-19T07:02:38;101957.63;;;12.84
67509;BMP280;54354;44.724;11.284;2023-11-19T07:05:05;101960.66;;;12.86
67509;BMP280;54354;44.724;11.284;2023-11-19T07:07:31;101958.00;;;12.86
67509;BMP280;54354;44.724;11.284;2023-11-19T07:09:58;101962.56;;;12.85
67509;BMP280;54354;44.724;11.284;2023-11-19T07:12:24;101962.94;;;12.84
67509;BMP280;54354;44.724;11.284;2023-11-19T07:14:52;101960.69;;;12.82
67509;BMP280;54354;44.724;11.284;2023-11-19T07:17:18;101956.50;;;12.81
67509;BMP280;54354;44.724;11.284;2023-11-19T07:19:46;101956.88;;;12.83
67509;BMP280;54354;44.724;11.284;2023-11-19T07:22:11;101969.41;;;12.86
67509;BMP280;54354;44.724;11.284;2023-11-19T07:24:39;101965.59;;;12.84
67509;BMP280;54354;44.724;11.284;2023-11-19T07:27:07;101979.25;;;12.89
67509;BMP280;54354;44.724;11.284;2023-11-19T07:29:34;101964.47;;;12.88
67509;BMP280;54354;44.724;11.284;2023-11-19T07:32:00;101983.78;;;12.92
67509;BMP280;54354;44.724;11.284;2023-11-19T07:34:27;101985.69;;;12.95
67509;BMP280;54354;44.724;11.284;2023-11-19T07:36:54;101992.88;;;12.98
67509;BMP280;54354;44.724;11.284;2023-11-19T07:39:22;102004.66;;;13.01
67509;BMP280;54354;44.724;11.284;2023-11-19T07:41:48;102004.59;;;13.05
67509;BMP280;54354;44.724;11.284;2023-11-19T07:44:14;102012.59;;;13.08
67509;BMP280;54354;44.724;11.284;2023-11-19T07:46:40;102011.81;;;13.11
67509;BMP280;54354;44.724;11.284;2023-11-19T07:49:07;102018.63;;;13.16
67509;BMP280;54354;44.724;11.284;2023-11-19T07:51:33;102027.31;;;13.23
67509;BMP280;54354;44.724;11.284;2023-11-19T07:53:58;102026.50;;;13.30
67509;BMP280;54354;44.724;11.284;2023-11-19T07:56:24;102020.75;;;13.39
67509;BMP280;54354;44.724;11.284;2023-11-19T07:58:50;102031.72;;;13.44
67509;BMP280;54354;44.724;11.284;2023-11-19T08:01:15;102021.03;;;13.51
67509;BMP280;54354;44.724;11.284;2023-11-19T08:03:41;102034.69;;;13.57
67509;BMP280;54354;44.724;11.284;2023-11-19T08:06:07;102035.81;;;13.60
67509;BMP280;54354;44.724;11.284;2023-11-19T08:08:32;102035.00;;;13.63
67509;BMP280;54354;44.724;11.284;2023-11-19T08:11:00;102028.53;;;13.64
67509;BMP280;54354;44.724;11.284;2023-11-19T08:13:26;102034.94;;;13.70
67509;BMP280;54354;44.724;11.284;2023-11-19T08:15:52;102041.03;;;13.74
67509;BMP280;54354;44.724;11.284;2023-11-19T08:18:17;102037.13;;;13.82
67509;BMP280;54354;44.724;11.284;2023-11-19T08:20:44;102032.19;;;13.84
67509;BMP280;54354;44.724;11.284;2023-11-19T08:23:10;102033.25;;;13.90
67509;BMP280;54354;44.724;11.284;2023-11-19T08:25:36;102032.84;;;13.95
67509;BMP280;54354;44.724;11.284;2023-11-19T08:28:02;102027.47;;;13.99
67509;BMP280;54354;44.724;11.284;2023-11-19T08:30:29;102037.72;;;14.04
67509;BMP280;54354;44.724;11.284;2023-11-19T08:32:55;102038.03;;;14.10
67509;BMP280;54354;44.724;11.284;2023-11-19T08:35:21;102034.91;;;14.15
67509;BMP280;54354;44.724;11.284;2023-11-19T08:37:47;102045.53;;;14.22
67509;BMP280;54354;44.724;11.284;2023-11-19T08:40:12;102043.56;;;14.26
67509;BMP280;54354;44.724;11.284;2023-11-19T08:42:40;102035.53;;;14.29
67509;BMP280;54354;44.724;11.284;2023-11-19T08:45:07;102032.81;;;14.33
67509;BMP280;54354;44.724;11.284;2023-11-19T08:47:36;102019.81;;;14.39
67509;BMP280;54354;44.724;11.284;2023-11-19T08:50:01;102033.06;;;14.46
67509;BMP280;54354;44.724;11.284;2023-11-19T08:52:30;102013.94;;;14.51
67509;BMP280;54354;44.724;11.284;2023-11-19T08:54:55;102016.94;;;14.56
67509;BMP280;54354;44.724;11.284;2023-11-19T08:57:21;102015.31;;;14.63
67509;BMP280;54354;44.724;11.284;2023-11-19T08:59:47;102007.63;;;14.68
67509;BMP280;54354;44.724;11.284;2023-11-19T09:02:12;102015.19;;;14.73
67509;BMP280;54354;44.724;11.284;2023-11-19T09:04:38;102015.50;;;14.79
67509;BMP280;54354;44.724;11.284;2023-11-19T09:07:03;102010.13;;;14.82
67509;BMP280;54354;44.724;11.284;2023-11-19T09:09:31;102005.53;;;14.83
67509;BMP280;54354;44.724;11.284;2023-11-19T09:12:01;102026.78;;;14.90
67509;BMP280;54354;44.724;11.284;2023-11-19T09:14:27;102021.44;;;14.90
67509;BMP280;54354;44.724;11.284;2023-11-19T09:16:52;102021.41;;;14.94
67509;BMP280;54354;44.724;11.284;2023-11-19T09:19:18;102023.25;;;14.97
67509;BMP280;54354;44.724;11.284;2023-11-19T09:21:43;102025.88;;;15.00
67509;BMP280;54354;44.724;11.284;2023-11-19T09:24:09;102026.19;;;15.06
67509;BMP280;54354;44.724;11.284;2023-11-19T09:26:35;102033.75;;;15.07
67509;BMP280;54354;44.724;11.284;2023-11-19T09:29:01;102034.13;;;15.09
67509;BMP280;54354;44.724;11.284;2023-11-19T09:31:27;102042.81;;;15.13
67509;BMP280;54354;44.724;11.284;2023-11-19T09:33:52;102044.31;;;15.18
67509;BMP280;54354;44.724;11.284;2023-11-19T09:36:18;102041.56;;;15.22
67509;BMP280;54354;44.724;11.284;2023-11-19T09:38:44;102028.59;;;15.24
67509;BMP280;54354;44.724;11.284;2023-11-19T09:41:10;102031.19;;;15.27
67509;BMP280;54354;44.724;11.284;2023-11-19T09:43:42;102020.53;;;15.27
67509;BMP280;54354;44.724;11.284;2023-11-19T09:46:13;102016.91;;;15.37
67509;BMP280;54354;44.724;11.284;2023-11-19T09:48:39;102019.13;;;15.43
67509;BMP280;54354;44.724;11.284;2023-11-19T09:51:10;102013.78;;;15.43
67509;BMP280;54354;44.724;11.284;2023-11-19T09:53:37;102026.25;;;15.49
67509;BMP280;54354;44.724;11.284;2023-11-19T09:56:06;102018.63;;;15.51
67509;BMP280;54354;44.724;11.284;2023-11-19T09:58:33;102000.59;;;16.18
67509;BMP280;54354;44.724;11.284;2023-11-19T10:01:00;102008.59;;;15.79
67509;BMP280;54354;44.724;11.284;2023-11-19T10:03:33;102004.22;;;15.69
67509;BMP280;54354;44.724;11.284;2023-11-19T10:06:00;101998.88;;;15.69
67509;BMP280;54354;44.724;11.284;2023-11-19T10:08:26;102007.97;;;15.71
67509;BMP280;54354;44.724;11.284;2023-11-19T10:10:52;101995.31;;;15.75
67509;BMP280;54354;44.724;11.284;2023-11-19T10:13:17;101988.75;;;15.80
67509;BMP280;54354;44.724;11.284;2023-11-19T10:15:43;101981.81;;;15.82
67509;BMP280;54354;44.724;11.284;2023-11-19T10:18:09;101975.66;;;15.85
67509;BMP280;54354;44.724;11.284;2023-11-19T10:20:41;101972.56;;;15.87
67509;BMP280;54354;44.724;11.284;2023-11-19T10:23:08;101975.09;;;15.94
67509;BMP280;54354;44.724;11.284;2023-11-19T10:25:34;101979.22;;;15.99
67509;BMP280;54354;44.724;11.284;2023-11-19T10:28:00;101974.22;;;16.01
67509;BMP280;54354;44.724;11.284;2023-11-19T10:30:30;101973.06;;;16.02
67509;BMP280;54354;44.724;11.284;2023-11-19T10:35:35;101978.50;;;16.14
67509;BMP280;54354;44.724;11.284;2023-11-19T10:38:13;101966.09;;;16.24
67509;BMP280;54354;44.724;11.284;2023-11-19T10:40:40;101958.41;;;16.26
67509;BMP280;54354;44.724;11.284;2023-11-19T10:43:05;101956.84;;;16.29
67509;BMP280;54354;44.724;11.284;2023-11-19T10:45:33;101939.66;;;16.30
67509;BMP280;54354;44.724;11.284;2023-11-19T10:47:59;101944.94;;;16.33
67509;BMP280;54354;44.724;11.284;2023-11-19T10:50:26;101946.75;;;16.36
67509;BMP280;54354;44.724;11.284;2023-11-19T10:52:56;101945.94;;;16.39
67509;BMP280;54354;44.724;11.284;2023-11-19T10:55:32;101958.03;;;16.44
67509;BMP280;54354;44.724;11.284;2023-11-19T10:58:07;101959.06;;;16.50
67509;BMP280;54354;44.724;11.284;2023-11-19T11:03:22;101941.94;;;16.64
67509;BMP280;54354;44.724;11.284;2023-11-19T11:05:51;101927.75;;;16.67
67509;BMP280;54354;44.724;11.284;2023-11-19T11:08:18;101926.16;;;16.69
67509;BMP280;54354;44.724;11.284;2023-11-19T11:10:54;101924.06;;;16.77
67509;BMP280;54354;44.724;11.284;2023-11-19T11:13:22;101920.88;;;16.82
67509;BMP280;54354;44.724;11.284;2023-11-19T11:15:52;101914.25;;;16.87
67509;BMP280;54354;44.724;11.284;2023-11-19T11:18:19;101925.44;;;16.98
67509;BMP280;54354;44.724;11.284;2023-11-19T11:20:46;101919.94;;;17.05
67509;BMP280;54354;44.724;11.284;2023-11-19T11:32:12;101893.84;;;17.38
67509;BMP280;54354;44.724;11.284;2023-11-19T11:37:18;101891.25;;;17.35
67509;BMP280;54354;44.724;11.284;2023-11-19T11:39:46;101879.59;;;17.41
67509;BMP280;54354;44.724;11.284;2023-11-19T11:42:38;101875.34;;;17.56
67509;BMP280;54354;44.724;11.284;2023-11-19T11:55:37;101874.72;;;17.78
67509;BMP280;54354;44.724;11.284;2023-11-19T11:58:03;101872.97;;;17.84
67509;BMP280;54354;44.724;11.284;2023-11-19T12:00:31;101865.06;;;17.80
67509;BMP280;54354;44.724;11.284;2023-11-19T12:03:00;101866.88;;;17.83
67509;BMP280;54354;44.724;11.284;2023-11-19T12:05:27;101874.72;;;17.91
67509;BMP280;54354;44.724;11.284;2023-11-19T12:08:06;101868.69;;;17.99
67509;BMP280;54354;44.724;11.284;2023-11-19T12:10:37;101869.66;;;18.05
67509;BMP280;54354;44.724;11.284;2023-11-19T12:13:06;101864.31;;;18.05
67509;BMP280;54354;44.724;11.284;2023-11-19T12:15:32;101857.13;;;18.15
67509;BMP280;54354;44.724;11.284;2023-11-19T12:17:58;101857.88;;;18.15
67509;BMP280;54354;44.724;11.284;2023-11-19T12:20:25;101852.81;;;18.17
67509;BMP280;54354;44.724;11.284;2023-11-19T12:22:51;101848.84;;;18.22
67509;BMP280;54354;44.724;11.284;2023-11-19T12:25:18;101844.56;;;18.25
67509;BMP280;54354;44.724;11.284;2023-11-19T12:28:01;101850.00;;;18.34
67509;BMP280;54354;44.724;11.284;2023-11-19T12:30:29;101839.63;;;18.36
67509;BMP280;54354;44.724;11.284;2023-11-19T12:32:55;101833.38;;;18.39
67509;BMP280;54354;44.724;11.284;2023-11-19T12:35:21;101829.03;;;18.41
67509;BMP280;54354;44.724;11.284;2023-11-19T12:37:48;101820.25;;;18.41
67509;BMP280;54354;44.724;11.284;2023-11-19T12:40:19;101808.81;;;18.40
67509;BMP280;54354;44.724;11.284;2023-11-19T12:42:46;101813.91;;;18.48
67509;BMP280;54354;44.724;11.284;2023-11-19T12:45:12;101819.91;;;18.52
67509;BMP280;54354;44.724;11.284;2023-11-19T12:47:39;101817.97;;;18.52
67509;BMP280;54354;44.724;11.284;2023-11-19T12:50:08;101806.72;;;18.57
67509;BMP280;54354;44.724;11.284;2023-11-19T12:52:35;101803.59;;;18.59
67509;BMP280;54354;44.724;11.284;2023-11-19T12:55:01;101806.56;;;18.61
67509;BMP280;54354;44.724;11.284;2023-11-19T12:57:38;101801.41;;;18.66
67509;BMP280;54354;44.724;11.284;2023-11-19T13:00:04;101800.88;;;18.71
67509;BMP280;54354;44.724;11.284;2023-11-19T13:02:47;101788.66;;;18.80
67509;BMP280;54354;44.724;11.284;2023-11-19T13:05:23;101789.13;;;18.78
67509;BMP280;54354;44.724;11.284;2023-11-19T13:07:49;101782.88;;;18.81
67509;BMP280;54354;44.724;11.284;2023-11-19T13:10:14;101785.84;;;18.83
67509;BMP280;54354;44.724;11.284;2023-11-19T13:12:40;101783.16;;;18.83
67509;BMP280;54354;44.724;11.284;2023-11-19T13:15:06;101779.16;;;18.88
67509;BMP280;54354;44.724;11.284;2023-11-19T13:17:32;101776.06;;;18.89
67509;BMP280;54354;44.724;11.284;2023-11-19T13:19:58;101772.94;;;18.91
67509;BMP280;54354;44.724;11.284;2023-11-19T13:22:23;101779.69;;;18.95
67509;BMP280;54354;44.724;11.284;2023-11-19T13:24:49;101781.19;;;18.96
67509;BMP280;54354;44.724;11.284;2023-11-19T13:27:14;101775.34;;;18.98
67509;BMP280;54354;44.724;11.284;2023-11-19T13:29:40;101782.53;;;19.01
67509;BMP280;54354;44.724;11.284;2023-11-19T13:32:05;101772.09;;;19.03
67509;BMP280;54354;44.724;11.284;2023-11-19T13:34:31;101775.88;;;19.06
67509;BMP280;54354;44.724;11.284;2023-11-19T13:36:56;101766.19;;;19.08
67509;BMP280;54354;44.724;11.284;2023-11-19T13:39:22;101758.88;;;19.09
67509;BMP280;54354;44.724;11.284;2023-11-19T13:41:48;101752.31;;;19.10
67509;BMP280;54354;44.724;11.284;2023-11-19T13:44:14;101751.41;;;19.13
67509;BMP280;54354;44.724;11.284;2023-11-19T13:46:39;101751.00;;;19.14
67509;BMP280;54354;44.724;11.284;2023-11-19T13:49:04;101741.72;;;19.15
67509;BMP280;54354;44.724;11.284;2023-11-19T13:51:30;101737.09;;;19.16
67509;BMP280;54354;44.724;11.284;2023-11-19T13:53:55;101735.94;;;19.17
67509;BMP280;54354;44.724;11.284;2023-11-19T13:56:21;101723.25;;;19.17
67509;BMP280;54354;44.724;11.284;2023-11-19T13:58:46;101729.38;;;19.18
67509;BMP280;54354;44.724;11.284;2023-11-19T14:01:12;101728.63;;;19.17
67509;BMP280;54354;44.724;11.284;2023-11-19T14:03:40;101723.66;;;19.16
67509;BMP280;54354;44.724;11.284;2023-11-19T14:06:07;101725.59;;;19.15
67509;BMP280;54354;44.724;11.284;2023-11-19T14:08:33;101724.44;;;19.16